createdAt,value
2022-10-17T00:00:29.601Z,101421.84
2022-10-17T00:02:57.526Z,101412.16
2022-10-17T00:05:25.022Z,101409.03
2022-10-17T00:07:52.459Z,101402.84
2022-10-17T00:10:20.453Z,101401.84
2022-10-17T00:12:46.989Z,101400.34
2022-10-17T00:15:19.033Z,101407.84
2022-10-17T00:17:45.577Z,101405.97
2022-10-17T00:20:12.847Z,101396.25
2022-10-17T00:22:39.524Z,101398.75
2022-10-17T00:25:06.724Z,101399.16
2022-10-17T00:27:40.954Z,101394.63
2022-10-17T00:30:11.460Z,101386.56
2022-10-17T00:32:38.356Z,101389.66
2022-10-17T00:35:06.628Z,101388.00
2022-10-17T00:37:33.551Z,101387.63
2022-10-17T00:40:00.150Z,101380.19
2022-10-17T00:42:27.678Z,101388.88
2022-10-17T00:45:01.161Z,101395.09
2022-10-17T00:47:28.974Z,101388.66
2022-10-17T00:49:55.540Z,101394.66
2022-10-17T00:52:25.808Z,101373.94
2022-10-17T00:54:58.676Z,101379.50
2022-10-17T00:57:27.903Z,101386.56
2022-10-17T00:59:57.796Z,101367.28
2022-10-17T01:02:24.271Z,101390.66
2022-10-17T01:04:55.088Z,101372.06
2022-10-17T01:07:22.463Z,101383.81
2022-10-17T01:09:49.843Z,101374.13
2022-10-17T01:12:36.618Z,101375.97
2022-10-17T01:15:05.791Z,101375.97
2022-10-17T01:17:47.459Z,101367.94
2022-10-17T01:20:22.869Z,101366.91
2022-10-17T01:23:37.600Z,101363.00
2022-10-17T01:26:26.679Z,101358.91
2022-10-17T01:28:59.010Z,101357.09
2022-10-17T01:31:51.726Z,101355.63
2022-10-17T01:34:24.923Z,101328.56
2022-10-17T01:37:04.393Z,101335.84
2022-10-17T01:39:45.354Z,101324.28
2022-10-17T01:42:37.056Z,101297.97
2022-10-17T01:45:09.296Z,101329.88
2022-10-17T01:47:35.914Z,101317.28
2022-10-17T01:50:13.041Z,101320.41
2022-10-17T01:52:50.902Z,101322.03
2022-10-17T01:55:22.616Z,101323.50
2022-10-17T01:57:57.430Z,101317.50
2022-10-17T02:00:27.015Z,101303.03
2022-10-17T02:02:58.860Z,101311.53
2022-10-17T02:05:31.372Z,101317.75
2022-10-17T02:07:57.922Z,101308.22
2022-10-17T02:10:42.963Z,101308.88
2022-10-17T02:13:13.369Z,101283.03
2022-10-17T02:15:46.773Z,101301.44
2022-10-17T02:18:19.044Z,101303.72
2022-10-17T02:21:08.468Z,101307.03
2022-10-17T02:23:38.408Z,101291.56
2022-10-17T02:26:19.309Z,101282.25
2022-10-17T02:29:07.067Z,101279.56
2022-10-17T02:31:41.372Z,101272.97
2022-10-17T02:34:30.749Z,101266.34
2022-10-17T02:37:02.008Z,101275.63
2022-10-17T02:39:30.396Z,101282.25
2022-10-17T02:41:59.018Z,101246.69
2022-10-17T02:44:27.753Z,101285.13
2022-10-17T02:47:03.539Z,101286.97
2022-10-17T02:49:36.408Z,101292.97
2022-10-17T02:52:21.497Z,101291.97
2022-10-17T02:55:06.890Z,101296.91
2022-10-17T02:57:40.896Z,101310.56
2022-10-17T03:00:11.036Z,101312.00
2022-10-17T03:02:40.396Z,101304.97
2022-10-17T03:05:07.946Z,101301.47
2022-10-17T03:07:34.324Z,101306.63
2022-10-17T03:10:00.790Z,101316.78
2022-10-17T03:12:27.469Z,101316.34
2022-10-17T03:14:54.336Z,101326.06
2022-10-17T03:17:20.744Z,101307.28
2022-10-17T03:19:47.137Z,101299.44
2022-10-17T03:22:13.475Z,101303.16
2022-10-17T03:24:39.941Z,101293.84
2022-10-17T03:27:06.402Z,101297.59
2022-10-17T03:29:32.899Z,101307.31
2022-10-17T03:31:59.275Z,101309.16
2022-10-17T03:34:25.750Z,101301.75
2022-10-17T03:36:52.164Z,101315.16
2022-10-17T03:39:18.603Z,101302.16
2022-10-17T03:41:45.084Z,101297.78
2022-10-17T03:44:11.469Z,101296.16
2022-10-17T03:46:38.651Z,101307.75
2022-10-17T03:49:05.069Z,101296.56
2022-10-17T03:51:33.512Z,101304.63
2022-10-17T03:53:59.962Z,101289.53
2022-10-17T03:56:26.616Z,101306.47
2022-10-17T03:58:54.134Z,101309.81
2022-10-17T04:01:21.472Z,101309.59
2022-10-17T04:03:56.060Z,101317.44
2022-10-17T04:06:22.777Z,101310.63
2022-10-17T04:08:49.775Z,101314.34
2022-10-17T04:11:19.529Z,101326.13
2022-10-17T04:13:46.291Z,101325.50
2022-10-17T04:16:15.737Z,101329.22
2022-10-17T04:18:43.519Z,101332.56
2022-10-17T04:21:10.757Z,101324.91
2022-10-17T04:23:37.157Z,101327.97
2022-10-17T04:26:04.744Z,101331.72
2022-10-17T04:28:32.705Z,101327.19
2022-10-17T04:31:05.615Z,101341.63
2022-10-17T04:33:34.320Z,101348.66
2022-10-17T04:36:02.464Z,101357.34
2022-10-17T04:38:29.533Z,101365.19
2022-10-17T04:41:03.172Z,101354.63
2022-10-17T04:43:37.631Z,101356.94
2022-10-17T04:46:08.545Z,101328.59
2022-10-17T04:48:35.006Z,101350.16
2022-10-17T04:51:07.964Z,101347.88
2022-10-17T04:53:36.101Z,101342.66
2022-10-17T04:56:09.276Z,101332.13
2022-10-17T04:58:36.257Z,101355.69
2022-10-17T05:01:11.366Z,101351.97
2022-10-17T05:03:38.145Z,101354.25
2022-10-17T05:06:10.897Z,101343.28
2022-10-17T05:08:37.602Z,101352.78
2022-10-17T05:11:05.806Z,101356.09
2022-10-17T05:13:32.947Z,101361.06
2022-10-17T05:16:00.940Z,101360.44
2022-10-17T05:18:28.602Z,101362.69
2022-10-17T05:20:55.117Z,101378.16
2022-10-17T05:23:21.716Z,101378.81
2022-10-17T05:25:48.099Z,101381.09
2022-10-17T05:28:14.529Z,101390.19
2022-10-17T05:30:40.940Z,101394.09
2022-10-17T05:33:07.298Z,101387.09
2022-10-17T05:35:33.686Z,101374.28
2022-10-17T05:38:00.579Z,101387.94
2022-10-17T05:40:27.166Z,101388.34
2022-10-17T05:42:53.730Z,101379.03
2022-10-17T05:45:20.198Z,101370.13
2022-10-17T05:47:46.653Z,101382.13
2022-10-17T05:50:13.115Z,101382.13
2022-10-17T05:52:40.569Z,101370.97
2022-10-17T05:55:08.950Z,101369.97
2022-10-17T05:57:35.571Z,101384.63
2022-10-17T06:00:02.213Z,101376.56
2022-10-17T06:02:29.908Z,101376.56
2022-10-17T06:04:56.511Z,101371.41
2022-10-17T06:07:22.950Z,101360.44
2022-10-17T06:09:49.385Z,101356.94
2022-10-17T06:12:15.782Z,101371.84
2022-10-17T06:14:42.180Z,101387.56
2022-10-17T06:17:13.444Z,101381.97
2022-10-17T06:19:42.253Z,101401.63
2022-10-17T06:22:08.758Z,101411.16
2022-10-17T06:24:35.196Z,101409.91
2022-10-17T06:27:01.625Z,101402.88
2022-10-17T06:29:28.054Z,101409.47
2022-10-17T06:31:54.535Z,101406.78
2022-10-17T06:34:21.140Z,101412.00
2022-10-17T06:36:47.687Z,101405.97
2022-10-17T06:39:14.349Z,101426.88
2022-10-17T06:41:41.628Z,101434.13
2022-10-17T06:44:11.163Z,101433.72
2022-10-17T06:46:39.365Z,101422.53
2022-10-17T06:49:06.600Z,101431.19
2022-10-17T06:51:37.451Z,101432.47
2022-10-17T06:54:04.649Z,101436.81
2022-10-17T06:56:31.076Z,101429.59
2022-10-17T06:58:57.637Z,101415.91
2022-10-17T07:01:24.129Z,101428.97
2022-10-17T07:03:50.654Z,101434.50
2022-10-17T07:06:17.989Z,101418.81
2022-10-17T07:08:45.501Z,101452.75
2022-10-17T07:11:17.279Z,101457.91
2022-10-17T07:13:44.041Z,101459.75
2022-10-17T07:16:11.324Z,101471.97
2022-10-17T07:18:37.739Z,101496.81
2022-10-17T07:21:04.846Z,101510.06
2022-10-17T07:23:31.515Z,101512.75
2022-10-17T07:26:02.345Z,101527.00
2022-10-17T07:28:29.077Z,101534.47
2022-10-17T07:30:55.522Z,101536.75
2022-10-17T07:33:21.923Z,101548.09
2022-10-17T07:35:48.283Z,101557.22
2022-10-17T07:38:14.651Z,101542.91
2022-10-17T07:40:41.111Z,101573.31
2022-10-17T07:43:07.514Z,101568.34
2022-10-17T07:45:33.997Z,101579.94
2022-10-17T07:48:00.423Z,101585.94
2022-10-17T07:50:26.847Z,101587.22
2022-10-17T07:52:53.247Z,101610.88
2022-10-17T07:55:19.732Z,101614.56
2022-10-17T07:57:46.155Z,101622.41
2022-10-17T08:00:12.853Z,101636.06
2022-10-17T08:02:39.609Z,101629.22
2022-10-17T08:05:06.399Z,101643.53
2022-10-17T08:07:32.820Z,101639.53
2022-10-17T08:09:59.372Z,101636.84
2022-10-17T08:12:26.164Z,101644.38
2022-10-17T08:14:52.611Z,101656.97
2022-10-17T08:17:19.003Z,101644.31
2022-10-17T08:19:45.466Z,101655.66
2022-10-17T08:22:11.858Z,101648.63
2022-10-17T08:24:38.247Z,101650.50
2022-10-17T08:27:11.274Z,101650.53
2022-10-17T08:29:40.418Z,101628.22
2022-10-17T08:32:09.568Z,101621.38
2022-10-17T08:34:36.323Z,101627.59
2022-10-17T08:37:02.736Z,101610.56
2022-10-17T08:39:29.276Z,101601.06
2022-10-17T08:42:22.297Z,101593.59
2022-10-17T08:45:00.188Z,101608.53
2022-10-17T08:47:33.977Z,101602.94
2022-10-17T08:50:04.277Z,101590.75
2022-10-17T08:52:41.545Z,101589.72
2022-10-17T08:55:45.787Z,101585.97
2022-10-17T08:58:22.343Z,101589.06
2022-10-17T09:01:14.218Z,101619.28
2022-10-17T09:04:02.296Z,101630.06
2022-10-17T09:06:32.885Z,101629.00
2022-10-17T09:09:29.273Z,101644.13
2022-10-17T09:12:05.266Z,101651.78
2022-10-17T09:14:44.546Z,101648.06
2022-10-17T09:17:49.759Z,101668.78
2022-10-17T09:20:26.047Z,101644.34
2022-10-17T09:22:59.722Z,101655.53
2022-10-17T09:25:27.565Z,101634.22
2022-10-17T09:28:10.963Z,101638.97
2022-10-17T09:30:49.217Z,101635.44
2022-10-17T09:33:53.746Z,101639.81
2022-10-17T09:36:29.898Z,101648.31
2022-10-17T09:39:01.732Z,101681.00
2022-10-17T09:41:51.544Z,101689.50
2022-10-17T09:44:22.432Z,101686.19
2022-10-17T09:46:55.019Z,101704.00
2022-10-17T09:49:30.316Z,101710.78
2022-10-17T09:51:56.821Z,101721.78
2022-10-17T09:54:28.950Z,101704.38
2022-10-17T09:57:09.893Z,101730.47
2022-10-17T09:59:39.594Z,101736.28
2022-10-17T10:02:23.686Z,101748.69
2022-10-17T10:05:05.154Z,101746.44
2022-10-17T10:07:36.206Z,101749.13
2022-10-17T10:10:05.644Z,101749.78
2022-10-17T10:12:37.398Z,101747.28
2022-10-17T10:15:34.832Z,101758.03
2022-10-17T10:18:01.327Z,101752.19
2022-10-17T10:20:37.013Z,101758.88
2022-10-17T10:23:06.080Z,101769.63
2022-10-17T10:25:33.198Z,101775.44
2022-10-17T10:28:01.833Z,101769.84
2022-10-17T10:30:32.814Z,101770.22
2022-10-17T10:33:01.619Z,101779.97
2022-10-17T10:35:32.916Z,101779.53
2022-10-17T10:38:02.055Z,101777.63
2022-10-17T10:40:38.208Z,101788.22
2022-10-17T10:43:06.446Z,101779.47
2022-10-17T10:45:47.604Z,101808.94
2022-10-17T10:48:30.268Z,101801.47
2022-10-17T10:51:04.136Z,101790.41
2022-10-17T10:53:51.779Z,101806.41
2022-10-17T10:56:29.018Z,101797.69
2022-10-17T10:59:03.029Z,101786.06
2022-10-17T11:01:35.580Z,101796.03
2022-10-17T11:04:32.117Z,101795.66
2022-10-17T11:07:15.361Z,101797.09
2022-10-17T11:09:50.900Z,101791.06
2022-10-17T11:12:25.104Z,101788.38
2022-10-17T11:15:10.002Z,101790.06
2022-10-17T11:18:00.175Z,101798.78
2022-10-17T11:20:44.876Z,101806.44
2022-10-17T11:23:19.854Z,101824.47
2022-10-17T11:25:49.285Z,101836.91
2022-10-17T11:28:21.239Z,101837.91
2022-10-17T11:31:07.084Z,101847.88
2022-10-17T11:33:56.946Z,101852.88
2022-10-17T11:36:30.677Z,101848.50
2022-10-17T11:39:03.661Z,101862.88
2022-10-17T11:41:37.810Z,101864.94
2022-10-17T11:44:13.231Z,101873.22
2022-10-17T11:46:41.648Z,101883.81
2022-10-17T11:49:20.170Z,101871.97
2022-10-17T11:52:44.416Z,101892.94
2022-10-17T11:55:25.308Z,101885.72
2022-10-17T11:58:01.997Z,101890.66
2022-10-17T12:00:50.340Z,101893.22
2022-10-17T12:03:31.774Z,101891.72
2022-10-17T12:06:19.490Z,101905.03
2022-10-17T12:08:51.453Z,101896.75
2022-10-17T12:11:17.784Z,101901.50
2022-10-17T12:13:49.784Z,101904.22
2022-10-17T12:16:19.217Z,101903.59
2022-10-17T12:19:10.607Z,101879.47
2022-10-17T12:22:00.651Z,101904.03
2022-10-17T12:24:38.936Z,101905.03
2022-10-17T12:27:31.597Z,101906.53
2022-10-17T12:30:00.541Z,101916.88
2022-10-17T12:32:30.278Z,101910.44
2022-10-17T12:35:03.543Z,101919.16
2022-10-17T12:37:45.338Z,101923.09
2022-10-17T12:40:36.656Z,101919.78
2022-10-17T12:43:18.098Z,101920.41
2022-10-17T12:45:46.377Z,101921.63
2022-10-17T12:48:12.891Z,101920.25
2022-10-17T12:54:16.418Z,101929.59
2022-10-17T12:56:46.615Z,101911.28
2022-10-17T12:59:17.654Z,101931.69
2022-10-17T13:01:48.544Z,101923.56
2022-10-17T13:04:16.177Z,101935.38
2022-10-17T13:06:54.073Z,101893.22
2022-10-17T13:09:31.383Z,101927.75
2022-10-17T13:12:01.282Z,101937.31
2022-10-17T13:14:28.536Z,101944.16
2022-10-17T13:17:04.171Z,101948.09
2022-10-17T13:19:42.759Z,101943.91
2022-10-17T13:22:28.668Z,101928.69
2022-10-17T13:25:16.829Z,101959.47
2022-10-17T13:27:43.824Z,101956.16
2022-10-17T13:30:32.340Z,101932.28
2022-10-17T13:33:00.173Z,101941.00
2022-10-17T13:35:58.994Z,101917.97
2022-10-17T13:38:28.856Z,101940.66
2022-10-17T13:41:02.049Z,101956.59
2022-10-17T13:43:38.760Z,101955.56
2022-10-17T13:46:25.401Z,101955.34
2022-10-17T13:48:53.318Z,101960.59
2022-10-17T13:51:20.153Z,101960.78
2022-10-17T13:53:46.544Z,101960.38
2022-10-17T13:56:29.795Z,101969.91
2022-10-17T13:59:00.170Z,101972.38
2022-10-17T14:01:29.306Z,101962.22
2022-10-17T14:04:08.499Z,101968.88
2022-10-17T14:06:45.023Z,101956.84
2022-10-17T14:09:26.425Z,101987.38
2022-10-17T14:12:20.591Z,101984.66
2022-10-17T14:15:13.899Z,101964.50
2022-10-17T14:17:38.543Z,101972.25
2022-10-17T14:20:40.770Z,101981.75
2022-10-17T14:23:21.035Z,101977.41
2022-10-17T14:25:41.434Z,101988.81
2022-10-17T14:28:09.521Z,101997.53
2022-10-17T14:30:55.794Z,101997.31
2022-10-17T14:33:27.776Z,101998.38
2022-10-17T14:35:57.679Z,102004.19
2022-10-17T14:38:25.214Z,102001.25
2022-10-17T14:41:15.644Z,102005.84
2022-10-17T14:43:57.217Z,102014.13
2022-10-17T14:46:24.510Z,102017.66
2022-10-17T14:49:02.178Z,102021.16
2022-10-17T14:51:32.549Z,102029.03
2022-10-17T14:54:26.516Z,102014.91
2022-10-17T14:56:54.298Z,102037.38
2022-10-17T14:59:51.629Z,102033.00
2022-10-17T15:02:09.573Z,102036.13
2022-10-17T15:04:35.949Z,102038.81
2022-10-17T15:07:02.441Z,102044.00
2022-10-17T15:09:29.057Z,102031.13
2022-10-17T15:11:56.779Z,102040.06
2022-10-17T15:14:23.256Z,102045.25
2022-10-17T15:16:49.647Z,102043.56
2022-10-17T15:19:16.193Z,102045.03
2022-10-17T15:21:46.252Z,102042.91
2022-10-17T15:24:14.932Z,102049.78
2022-10-17T15:26:42.053Z,102056.81
2022-10-17T15:29:14.725Z,102049.31
2022-10-17T15:31:41.674Z,102060.34
2022-10-17T15:34:08.141Z,102066.38
2022-10-17T15:36:40.141Z,102071.75
2022-10-17T15:39:06.580Z,102072.97
2022-10-17T15:41:33.446Z,102068.63
2022-10-17T15:44:00.930Z,102072.97
2022-10-17T15:46:30.310Z,102075.66
2022-10-17T15:49:01.359Z,102091.00
2022-10-17T15:51:27.741Z,102085.59
2022-10-17T15:53:54.146Z,102084.59
2022-10-17T15:56:36.372Z,102080.19
2022-10-17T15:59:13.875Z,102082.31
2022-10-17T16:01:41.203Z,102069.84
2022-10-17T16:04:12.783Z,102082.06
2022-10-17T16:06:39.403Z,102082.47
2022-10-17T16:09:05.769Z,102095.34
2022-10-17T16:11:37.783Z,102099.03
2022-10-17T16:14:07.427Z,102098.22
2022-10-17T16:16:34.416Z,102099.44
2022-10-17T16:19:01.509Z,102098.81
2022-10-17T16:21:32.323Z,102104.84
2022-10-17T16:23:59.233Z,102116.22
2022-10-17T16:26:25.695Z,102110.00
2022-10-17T16:28:52.599Z,102119.28
2022-10-17T16:31:25.318Z,102114.09
2022-10-17T16:33:53.902Z,102121.81
2022-10-17T16:36:20.400Z,102119.25
2022-10-17T16:38:48.069Z,102125.91
2022-10-17T16:41:21.376Z,102124.88
2022-10-17T16:43:52.637Z,102126.75
2022-10-17T16:46:19.965Z,102129.81
2022-10-17T16:48:46.615Z,102137.53
2022-10-17T16:51:15.012Z,102136.06
2022-10-17T16:53:44.752Z,102139.78
2022-10-17T16:56:13.624Z,102144.34
2022-10-17T16:58:41.545Z,102135.63
2022-10-17T17:01:12.987Z,102133.91
2022-10-17T17:03:41.792Z,102165.25
2022-10-17T17:06:11.948Z,102154.03
2022-10-17T17:08:38.521Z,102159.81
2022-10-17T17:11:08.599Z,102161.66
2022-10-17T17:13:35.226Z,102167.91
2022-10-17T17:16:07.189Z,102154.75
2022-10-17T17:18:34.769Z,102170.97
2022-10-17T17:21:03.063Z,102175.13
2022-10-17T17:23:30.664Z,102169.75
2022-10-17T17:26:02.165Z,102139.53
2022-10-17T17:28:29.035Z,102169.75
2022-10-17T17:30:55.615Z,102163.94
2022-10-17T17:33:23.927Z,102179.06
2022-10-17T17:36:00.013Z,102183.59
2022-10-17T17:38:29.767Z,102174.06
2022-10-17T17:40:56.441Z,102180.47
2022-10-17T17:43:23.264Z,102184.00
2022-10-17T17:45:49.698Z,102181.50
2022-10-17T17:48:16.212Z,102185.19
2022-10-17T17:50:43.518Z,102180.59
2022-10-17T17:53:11.767Z,102183.53
2022-10-17T17:55:38.362Z,102197.19
2022-10-17T17:58:05.184Z,102181.22
2022-10-17T18:00:31.692Z,102196.09
2022-10-17T18:02:58.130Z,102186.31
2022-10-17T18:05:24.618Z,102189.91
2022-10-17T18:07:51.155Z,102190.91
2022-10-17T18:10:17.703Z,102206.41
2022-10-17T18:12:44.151Z,102213.28
2022-10-17T18:15:11.190Z,102213.69
2022-10-17T18:17:38.459Z,102217.19
2022-10-17T18:20:06.261Z,102222.56
2022-10-17T18:22:33.102Z,102238.75
2022-10-17T18:24:59.782Z,102240.81
2022-10-17T18:27:26.233Z,102240.34
2022-10-17T18:29:52.620Z,102241.38
2022-10-17T18:32:19.610Z,102240.72
2022-10-17T18:34:46.195Z,102232.84
2022-10-17T18:37:12.735Z,102236.56
2022-10-17T18:39:39.244Z,102238.22
2022-10-17T18:42:06.743Z,102244.38
2022-10-17T18:44:33.216Z,102241.03
2022-10-17T18:47:03.097Z,102246.63
2022-10-17T18:49:30.813Z,102253.03
2022-10-17T18:51:57.292Z,102243.47
2022-10-17T18:54:24.438Z,102259.63
2022-10-17T18:56:53.158Z,102261.28
2022-10-17T18:59:20.645Z,102260.66
2022-10-17T19:01:47.727Z,102271.22
2022-10-17T19:04:14.485Z,102268.34
2022-10-17T19:06:41.626Z,102266.22
2022-10-17T19:09:11.106Z,102270.38
2022-10-17T19:11:38.282Z,102268.09
2022-10-17T19:14:13.124Z,102254.28
2022-10-17T19:16:48.908Z,102254.91
2022-10-17T19:19:24.499Z,102265.19
2022-10-17T19:21:51.609Z,102272.03
2022-10-17T19:24:27.248Z,102274.13
2022-10-17T19:26:57.254Z,102274.13
2022-10-17T19:29:27.269Z,102262.69
2022-10-17T19:34:25.251Z,102273.28
2022-10-17T19:36:51.707Z,102274.47
2022-10-17T19:39:20.170Z,102275.69
2022-10-17T19:41:47.784Z,102273.75
2022-10-17T19:44:14.636Z,102279.59
2022-10-17T19:46:41.310Z,102280.88
2022-10-17T19:49:07.750Z,102288.31
2022-10-17T19:51:34.376Z,102288.88
2022-10-17T19:54:01.426Z,102284.34
2022-10-17T19:56:31.473Z,102285.09
2022-10-17T19:58:58.635Z,102301.88
2022-10-17T20:01:28.124Z,102277.88
2022-10-17T20:03:55.739Z,102305.78
2022-10-17T20:06:22.883Z,102307.28
2022-10-17T20:08:50.204Z,102308.31
2022-10-17T20:11:19.530Z,102289.72
2022-10-17T20:13:46.067Z,102304.69
2022-10-17T20:16:20.528Z,102310.34
2022-10-17T20:18:48.422Z,102299.78
2022-10-17T20:21:17.551Z,102312.00
2022-10-17T20:23:45.545Z,102311.16
2022-10-17T20:26:26.365Z,102324.81
2022-10-17T20:29:04.571Z,102332.78
2022-10-17T20:31:31.179Z,102334.28
2022-10-17T20:33:59.011Z,102347.75
2022-10-17T20:36:25.538Z,102338.16
2022-10-17T20:38:56.352Z,102346.06
2022-10-17T20:41:23.927Z,102353.66
2022-10-17T20:43:54.723Z,102357.56
2022-10-17T20:46:35.457Z,102354.88
2022-10-17T20:49:03.016Z,102359.41
2022-10-17T20:51:29.610Z,102350.69
2022-10-17T20:56:26.107Z,102347.91
2022-10-17T20:58:54.607Z,102364.06
2022-10-17T21:01:22.364Z,102365.28
2022-10-17T21:03:49.630Z,102365.09
2022-10-17T21:06:16.834Z,102363.59
2022-10-17T21:08:44.067Z,102372.69
2022-10-17T21:11:16.570Z,102375.75
2022-10-17T21:13:44.042Z,102372.97
2022-10-17T21:16:16.539Z,102383.53
2022-10-17T21:18:43.651Z,102385.56
2022-10-17T21:21:16.331Z,102366.44
2022-10-17T21:23:44.816Z,102384.91
2022-10-17T21:26:12.704Z,102380.75
2022-10-17T21:28:43.568Z,102375.72
2022-10-17T21:31:23.173Z,102394.34
2022-10-17T21:33:57.863Z,102394.91
2022-10-17T21:36:26.008Z,102406.13
2022-10-17T21:38:55.895Z,102384.41
2022-10-17T21:41:24.938Z,102389.97
2022-10-17T21:43:56.429Z,102398.22
2022-10-17T21:46:23.904Z,102410.09
2022-10-17T21:48:51.803Z,102420.84
2022-10-17T21:51:21.551Z,102427.25
2022-10-17T21:53:48.577Z,102418.88
2022-10-17T21:56:17.478Z,102411.22
2022-10-17T21:58:44.601Z,102422.94
2022-10-17T22:01:13.180Z,102416.75
2022-10-17T22:03:45.856Z,102387.75
2022-10-17T22:06:38.530Z,102407.38
2022-10-17T22:09:08.006Z,102406.34
2022-10-17T22:11:35.523Z,102410.91
2022-10-17T22:14:05.034Z,102411.22
2022-10-17T22:16:31.699Z,102425.34
2022-10-17T22:19:03.180Z,102425.84
2022-10-17T22:21:32.538Z,102431.97
2022-10-17T22:24:01.738Z,102432.94
2022-10-17T22:26:30.256Z,102438.50
2022-10-17T22:28:57.186Z,102448.78
2022-10-17T22:31:23.729Z,102437.91
2022-10-17T22:33:50.138Z,102435.22
2022-10-17T22:36:16.587Z,102441.63
2022-10-17T22:38:42.946Z,102442.31
2022-10-17T22:41:09.313Z,102438.78
2022-10-17T22:43:35.851Z,102441.66
2022-10-17T22:46:04.019Z,102436.44
2022-10-17T22:48:30.561Z,102431.25
2022-10-17T22:50:58.292Z,102442.00
2022-10-17T22:53:26.761Z,102440.34
2022-10-17T22:55:55.451Z,102424.97
2022-10-17T22:58:22.299Z,102437.69
2022-10-17T23:00:49.853Z,102443.91
2022-10-17T23:03:16.594Z,102437.22
2022-10-17T23:05:43.090Z,102437.72
2022-10-17T23:08:11.130Z,102441.13
2022-10-17T23:10:37.619Z,102447.00
2022-10-17T23:13:04.083Z,102441.97
2022-10-17T23:15:32.146Z,102443.50
2022-10-17T23:17:59.570Z,102445.69
2022-10-17T23:20:26.417Z,102442.53
2022-10-17T23:22:53.041Z,102449.06
2022-10-17T23:25:19.476Z,102454.94
2022-10-17T23:27:45.884Z,102449.25
2022-10-17T23:30:12.429Z,102441.53
2022-10-17T23:32:41.230Z,102438.84
2022-10-17T23:35:08.631Z,102437.38
2022-10-17T23:37:35.724Z,102443.56
2022-10-17T23:40:02.516Z,102445.91
2022-10-17T23:42:28.969Z,102433.72
2022-10-17T23:44:55.379Z,102437.59
2022-10-17T23:47:21.955Z,102435.53
2022-10-17T23:49:48.370Z,102435.72
2022-10-17T23:52:14.847Z,102439.25
2022-10-17T23:57:08.621Z,102444.28
2022-10-17T23:59:34.990Z,102432.59
